This is the latest recevied weather packets stored in our database for station/object E7HQ-1. If no packets are shown the sender has not sent any weather packets the latest 10 day(s).
| Time | Temp. | Humidity | Pressure | Rain* | Wind** | Luminosity | Snow |
|---|---|---|---|---|---|---|---|
| 1777439512 | 12.78° C | 47% | 1028.3 hPa | - | - | - | - |
| 1777438611 | 12.22° C | 48% | 1028.3 hPa | - | - | - | - |
| 1777437711 | 12.22° C | 48% | 1028.3 hPa | - | - | - | - |
| 1777436811 | 12.22° C | 48% | 1028.1 hPa | - | - | - | - |
| 1777435911 | 12.22° C | 47% | 1028 hPa | - | - | - | - |
| 1777435011 | 12.22° C | 47% | 1027.9 hPa | - | - | - | - |
| 1777434110 | 12.78° C | 47% | 1027.8 hPa | - | - | - | - |
| 1777433210 | 12.78° C | 47% | 1027.8 hPa | - | - | - | - |
| 1777432310 | 12.78° C | 47% | 1027.7 hPa | - | - | - | - |
| 1777427809 | 12.78° C | 45% | 1027.5 hPa | - | - | - | - |
| 1777426909 | 12.78° C | 46% | 1027.5 hPa | - | - | - | - |
| 1777423308 | 13.33° C | 45% | 1027.5 hPa | - | - | - | - |
| 1777422407 | 13.33° C | 45% | 1027.6 hPa | - | - | - | - |
| 1777421512 | 13.33° C | 45% | 1027.7 hPa | - | - | - | - |
| 1777417011 | 14.44° C | 42% | 1028 hPa | - | - | - | - |
| 1777410709 | 14.44° C | 43% | 1028.2 hPa | - | - | - | - |
| 1777408909 | 14.44° C | 43% | 1028 hPa | - | - | - | - |
| 1777404408 | 14.44° C | 45% | 1028.1 hPa | - | - | - | - |
| 1777403507 | 15° C | 45% | 1028 hPa | - | - | - | - |
| 1777390010 | 18.33° C | 37% | 1026.4 hPa | - | - | - | - |
| 1777386409 | 19.44° C | 35% | 1026.4 hPa | - | - | - | - |
| 1777385509 | 20° C | 34% | 1026.4 hPa | - | - | - | - |
| 1777381907 | 22.78° C | 29% | 1026.5 hPa | - | - | - | - |
| 1777379206 | 23.33° C | 28% | 1026.8 hPa | - | - | - | - |
| 1777378311 | 23.89° C | 28% | 1026.9 hPa | - | - | - | - |
* Rain since midnight (hover to see other rain measurements)
** Current wind speed in m/s (hover to see current wind gust speed)